createdAt,value
2018-01-13T00:00:05.325Z,88.90
2018-01-13T00:02:33.045Z,88.90
2018-01-13T00:05:01.620Z,89.10
2018-01-13T00:07:30.258Z,88.90
2018-01-13T00:09:58.050Z,88.90
2018-01-13T00:12:25.670Z,88.90
2018-01-13T00:14:53.356Z,89.00
2018-01-13T00:17:21.027Z,89.10
2018-01-13T00:19:48.678Z,89.00
2018-01-13T00:22:16.358Z,88.90
2018-01-13T00:24:44.993Z,88.80
2018-01-13T00:27:13.556Z,88.20
2018-01-13T00:29:41.315Z,88.20
2018-01-13T00:32:08.938Z,87.80
2018-01-13T00:34:36.665Z,87.50
2018-01-13T00:37:05.253Z,87.70
2018-01-13T00:39:33.734Z,87.50
2018-01-13T00:42:02.928Z,87.60
2018-01-13T00:44:31.401Z,87.50
2018-01-13T00:46:59.093Z,87.50
2018-01-13T00:49:26.904Z,87.80
2018-01-13T00:51:54.673Z,87.30
2018-01-13T00:54:22.487Z,87.00
2018-01-13T00:56:50.947Z,87.20
2018-01-13T00:59:18.599Z,87.20
2018-01-13T01:01:46.293Z,87.10
2018-01-13T01:04:14.726Z,86.50
2018-01-13T01:06:42.538Z,86.40
2018-01-13T01:09:11.015Z,87.50
2018-01-13T01:11:38.760Z,86.80
2018-01-13T01:14:06.562Z,87.30
2018-01-13T01:16:35.221Z,87.20
2018-01-13T01:19:03.611Z,87.10
2018-01-13T01:21:31.328Z,87.10
2018-01-13T01:23:58.987Z,87.40
2018-01-13T01:26:26.724Z,87.40
2018-01-13T01:28:55.206Z,87.70
2018-01-13T01:31:22.956Z,87.70
2018-01-13T01:33:50.693Z,87.90
2018-01-13T01:36:19.246Z,88.50
2018-01-13T01:38:46.872Z,88.40
2018-01-13T01:41:14.478Z,88.50
2018-01-13T01:43:42.117Z,88.70
2018-01-13T01:46:10.733Z,88.30
2018-01-13T01:48:38.338Z,88.30
2018-01-13T01:51:07.010Z,87.90
2018-01-13T01:53:34.713Z,87.40
2018-01-13T01:56:03.336Z,87.20
2018-01-13T01:58:31.047Z,87.20
2018-01-13T02:00:59.587Z,87.50
2018-01-13T02:03:27.308Z,87.40
2018-01-13T02:05:55.030Z,87.70
2018-01-13T02:08:22.657Z,87.80
2018-01-13T02:10:51.074Z,87.70
2018-01-13T02:13:18.840Z,87.70
2018-01-13T02:15:47.585Z,87.40
2018-01-13T02:18:16.221Z,87.50
2018-01-13T02:20:43.868Z,87.50
2018-01-13T02:23:11.735Z,87.70
2018-01-13T02:25:39.357Z,87.50
2018-01-13T02:28:07.018Z,87.40
2018-01-13T02:30:34.740Z,87.20
2018-01-13T02:33:02.555Z,87.30
2018-01-13T02:35:31.007Z,87.50
2018-01-13T02:38:00.046Z,87.70
2018-01-13T02:40:28.620Z,87.60
2018-01-13T02:42:57.230Z,87.70
2018-01-13T02:45:24.966Z,87.60
2018-01-13T02:47:52.781Z,87.40
2018-01-13T02:50:20.701Z,87.20
2018-01-13T02:52:48.488Z,87.40
2018-01-13T02:55:17.138Z,87.30
2018-01-13T02:57:44.874Z,88.00
2018-01-13T03:00:12.671Z,87.30
2018-01-13T03:02:40.456Z,86.60
2018-01-13T03:05:08.219Z,86.60
2018-01-13T03:07:35.882Z,86.20
2018-01-13T03:10:03.593Z,86.00
2018-01-13T03:12:31.318Z,85.50
2018-01-13T03:14:59.180Z,85.50
2018-01-13T03:17:26.974Z,86.00
2018-01-13T03:19:55.604Z,84.90
2018-01-13T03:22:23.362Z,84.90
2018-01-13T03:24:51.070Z,84.80
2018-01-13T03:27:18.735Z,84.70
2018-01-13T03:29:47.183Z,84.80
2018-01-13T03:32:14.815Z,84.60
2018-01-13T03:34:42.504Z,85.60
2018-01-13T03:37:10.198Z,84.90
2018-01-13T03:39:38.811Z,85.10
2018-01-13T03:42:07.296Z,84.60
2018-01-13T03:44:36.015Z,84.70
2018-01-13T03:47:03.639Z,84.70
2018-01-13T03:49:33.033Z,84.20
2018-01-13T03:52:00.773Z,84.20
2018-01-13T03:54:29.369Z,83.80
2018-01-13T03:56:57.070Z,83.80
2018-01-13T03:59:25.740Z,83.40
2018-01-13T04:01:53.412Z,83.30
2018-01-13T04:04:21.137Z,84.20
2018-01-13T04:06:49.039Z,83.50
2018-01-13T04:09:16.682Z,83.40
2018-01-13T04:11:44.590Z,83.60
2018-01-13T04:14:13.253Z,83.70
2018-01-13T04:16:41.242Z,83.70
2018-01-13T04:19:09.751Z,83.50
2018-01-13T04:21:37.432Z,83.50
2018-01-13T04:24:05.263Z,83.50
2018-01-13T04:26:33.660Z,83.20
2018-01-13T04:29:01.550Z,83.10
2018-01-13T04:31:29.370Z,83.10
2018-01-13T04:33:57.224Z,83.10
2018-01-13T04:36:24.996Z,82.70
2018-01-13T04:38:52.874Z,82.60
2018-01-13T04:41:20.636Z,82.60
2018-01-13T04:43:48.285Z,83.50
2018-01-13T04:46:15.947Z,83.10
2018-01-13T04:48:43.735Z,83.00
2018-01-13T04:51:11.405Z,83.30
2018-01-13T04:53:40.134Z,83.70
2018-01-13T04:56:07.850Z,83.50
2018-01-13T04:58:35.713Z,83.60
2018-01-13T05:01:03.637Z,83.80
2018-01-13T05:03:31.294Z,83.50
2018-01-13T05:05:58.962Z,83.50
2018-01-13T05:08:26.680Z,83.50
2018-01-13T05:10:55.187Z,83.50
2018-01-13T05:13:22.786Z,83.50
2018-01-13T05:15:50.598Z,83.70
2018-01-13T05:18:18.999Z,84.30
2018-01-13T05:20:47.368Z,83.40
2018-01-13T05:23:15.845Z,83.50
2018-01-13T05:25:43.577Z,83.40
2018-01-13T05:28:11.284Z,83.40
2018-01-13T05:30:40.017Z,83.30
2018-01-13T05:33:07.832Z,83.30
2018-01-13T05:35:35.485Z,83.50
2018-01-13T05:38:03.184Z,84.10
2018-01-13T05:40:30.953Z,83.20
2018-01-13T05:42:58.760Z,83.20
2018-01-13T05:45:26.575Z,83.30
2018-01-13T05:47:55.033Z,83.30
2018-01-13T05:50:22.804Z,83.30
2018-01-13T05:52:51.258Z,83.60
2018-01-13T05:55:19.796Z,82.50
2018-01-13T05:57:48.365Z,82.00
2018-01-13T06:00:16.123Z,81.90
2018-01-13T06:02:43.792Z,82.50
2018-01-13T06:05:12.428Z,80.80
2018-01-13T06:07:40.099Z,80.80
2018-01-13T06:10:07.789Z,80.60
2018-01-13T06:12:35.421Z,80.70
2018-01-13T06:15:03.248Z,81.50
2018-01-13T06:17:31.632Z,80.20
2018-01-13T06:20:00.243Z,80.20
2018-01-13T06:22:28.208Z,80.20
2018-01-13T06:24:56.052Z,80.60
2018-01-13T06:27:24.623Z,80.20
2018-01-13T06:29:53.213Z,80.10
2018-01-13T06:32:21.055Z,80.00
2018-01-13T06:34:48.642Z,80.30
2018-01-13T06:37:16.351Z,80.00
2018-01-13T06:39:44.011Z,80.00
2018-01-13T06:42:11.698Z,79.40
2018-01-13T06:44:39.441Z,78.90
2018-01-13T06:47:07.400Z,78.70
2018-01-13T06:49:36.026Z,79.10
2018-01-13T06:52:03.845Z,79.00
2018-01-13T06:54:32.465Z,77.80
2018-01-13T06:57:00.088Z,77.80
2018-01-13T06:59:28.666Z,77.90
2018-01-13T07:01:56.438Z,77.90
2018-01-13T07:04:24.924Z,77.70
2018-01-13T07:06:53.366Z,77.60
2018-01-13T07:09:21.132Z,77.60
2018-01-13T07:11:48.944Z,78.00
2018-01-13T07:14:17.405Z,77.70
2018-01-13T07:16:45.301Z,77.70
2018-01-13T07:19:13.925Z,77.40
2018-01-13T07:21:42.736Z,77.30
2018-01-13T07:24:10.566Z,77.80
2018-01-13T07:26:38.565Z,78.10
2018-01-13T07:29:07.465Z,78.30
2018-01-13T07:31:35.281Z,78.30
2018-01-13T07:34:03.099Z,77.70
2018-01-13T07:36:31.026Z,78.00
2018-01-13T07:38:59.526Z,77.50
2018-01-13T07:41:27.352Z,77.50
2018-01-13T07:43:54.982Z,77.50
2018-01-13T07:46:22.777Z,77.10
2018-01-13T07:48:50.454Z,77.50
2018-01-13T07:51:18.223Z,76.90
2018-01-13T07:53:47.331Z,77.20
2018-01-13T07:56:16.047Z,76.80
2018-01-13T07:58:43.917Z,76.80
2018-01-13T08:01:11.890Z,76.60
2018-01-13T08:03:40.145Z,76.50
2018-01-13T08:06:07.906Z,76.40
2018-01-13T08:08:36.564Z,75.80
2018-01-13T08:11:04.429Z,75.80
2018-01-13T08:13:32.878Z,75.30
2018-01-13T08:16:00.689Z,74.30
2018-01-13T08:18:28.480Z,75.00
2018-01-13T08:20:56.341Z,74.10
2018-01-13T08:23:24.046Z,73.60
2018-01-13T08:25:51.930Z,74.10
2018-01-13T08:28:19.890Z,74.80
2018-01-13T08:30:47.706Z,75.10
2018-01-13T08:33:15.385Z,75.30
2018-01-13T08:35:44.072Z,74.80
2018-01-13T08:38:12.005Z,74.70
2018-01-13T08:40:39.940Z,74.50
2018-01-13T08:43:07.678Z,74.30
2018-01-13T08:45:35.667Z,74.10
2018-01-13T08:48:04.363Z,73.30
2018-01-13T08:50:33.832Z,72.90
2018-01-13T08:53:01.664Z,72.90
2018-01-13T08:55:29.402Z,72.40
2018-01-13T08:57:57.935Z,72.60
2018-01-13T09:00:25.588Z,72.60
2018-01-13T09:02:53.280Z,72.50
2018-01-13T09:05:21.076Z,72.60
2018-01-13T09:07:50.317Z,72.50
2018-01-13T09:10:18.144Z,72.50
2018-01-13T09:12:45.876Z,72.50
2018-01-13T09:15:13.736Z,72.50
2018-01-13T09:17:41.455Z,72.70
2018-01-13T09:20:09.843Z,72.10
2018-01-13T09:22:38.387Z,72.50
2018-01-13T09:25:06.029Z,72.50
2018-01-13T09:27:33.762Z,72.40
2018-01-13T09:30:01.407Z,72.40
2018-01-13T09:32:30.556Z,72.30
2018-01-13T09:34:58.303Z,72.20
2018-01-13T09:37:26.136Z,72.00
2018-01-13T09:39:54.629Z,72.00
2018-01-13T09:42:23.144Z,71.80
2018-01-13T09:44:50.699Z,71.80
2018-01-13T09:47:18.332Z,71.40
2018-01-13T09:49:46.764Z,70.90
2018-01-13T09:52:14.467Z,70.90
2018-01-13T09:54:42.032Z,70.00
2018-01-13T09:57:10.381Z,70.20
2018-01-13T09:59:37.952Z,70.10
2018-01-13T10:02:05.510Z,70.40
2018-01-13T10:04:33.118Z,70.70
2018-01-13T10:07:00.695Z,70.60
2018-01-13T10:09:28.325Z,70.80
2018-01-13T10:11:56.677Z,70.30
2018-01-13T10:14:24.231Z,70.30
2018-01-13T10:16:51.851Z,70.60
2018-01-13T10:19:19.439Z,69.20
2018-01-13T10:21:47.000Z,69.10
2018-01-13T10:24:14.588Z,67.40
2018-01-13T10:26:42.926Z,66.20
2018-01-13T10:29:10.536Z,66.20
2018-01-13T10:31:38.127Z,65.30
2018-01-13T10:34:06.489Z,64.50
2018-01-13T10:36:34.046Z,64.50
2018-01-13T10:39:01.635Z,64.30
2018-01-13T10:41:29.202Z,63.80
2018-01-13T10:43:56.755Z,63.60
2018-01-13T10:46:25.082Z,63.00
2018-01-13T10:48:52.649Z,63.00
2018-01-13T10:51:20.219Z,62.70
2018-01-13T10:53:48.785Z,64.20
2018-01-13T10:56:16.341Z,63.00
2018-01-13T10:58:43.934Z,62.80
2018-01-13T11:01:11.507Z,62.90
2018-01-13T11:03:39.849Z,63.20
2018-01-13T11:06:07.430Z,62.60
2018-01-13T11:08:35.014Z,63.10
2018-01-13T11:11:02.598Z,63.10
2018-01-13T11:13:30.165Z,62.10
2018-01-13T11:15:57.772Z,62.70
2018-01-13T11:18:25.330Z,62.50
2018-01-13T11:20:52.933Z,63.00
2018-01-13T11:23:21.278Z,63.20
2018-01-13T11:25:48.873Z,63.20
2018-01-13T11:28:17.304Z,63.20
2018-01-13T11:30:44.866Z,63.20
2018-01-13T11:33:12.446Z,62.20
2018-01-13T11:35:40.025Z,63.00
2018-01-13T11:38:07.708Z,62.60
2018-01-13T11:40:36.049Z,61.80
2018-01-13T11:43:03.740Z,61.80
2018-01-13T11:45:31.313Z,62.20
2018-01-13T11:47:58.975Z,62.20
2018-01-13T11:50:27.341Z,60.30
2018-01-13T11:52:54.926Z,60.20
2018-01-13T11:55:23.257Z,59.80
2018-01-13T11:57:50.814Z,59.80
2018-01-13T12:00:18.417Z,59.90
2018-01-13T12:02:46.854Z,60.10
2018-01-13T12:05:14.429Z,60.00
2018-01-13T12:07:42.013Z,60.80
2018-01-13T12:10:09.684Z,60.10
2018-01-13T12:12:37.247Z,59.90
2018-01-13T12:15:04.828Z,59.70
2018-01-13T12:17:33.142Z,59.90
2018-01-13T12:20:00.722Z,59.80
2018-01-13T12:22:28.303Z,59.90
2018-01-13T12:24:55.863Z,60.10
2018-01-13T12:27:23.430Z,60.20
2018-01-13T12:29:51.016Z,59.90
2018-01-13T12:32:18.626Z,59.70
2018-01-13T12:34:46.157Z,59.30
2018-01-13T12:37:13.753Z,59.70
2018-01-13T12:39:41.560Z,59.30
2018-01-13T12:42:09.711Z,59.00
2018-01-13T12:44:37.263Z,58.50
2018-01-13T12:47:04.858Z,58.40
2018-01-13T12:49:33.260Z,56.50
2018-01-13T12:52:00.881Z,56.30
2018-01-13T12:54:28.488Z,55.60
2018-01-13T12:56:56.057Z,55.80
2018-01-13T12:59:23.638Z,56.20
2018-01-13T13:01:51.209Z,57.10
2018-01-13T13:04:18.829Z,55.60
2018-01-13T13:06:46.439Z,55.50
2018-01-13T13:09:14.025Z,55.20
2018-01-13T13:11:41.586Z,55.50
2018-01-13T13:14:09.158Z,56.00
2018-01-13T13:16:36.709Z,55.70
2018-01-13T13:19:04.397Z,55.50
2018-01-13T13:21:32.738Z,54.60
2018-01-13T13:24:00.301Z,54.60
2018-01-13T13:26:27.892Z,54.30
2018-01-13T13:28:56.270Z,54.10
2018-01-13T13:31:24.630Z,54.10
2018-01-13T13:33:53.013Z,54.50
2018-01-13T13:36:20.646Z,54.50
2018-01-13T13:38:48.228Z,53.10
2018-01-13T13:41:15.783Z,53.40
2018-01-13T13:43:43.331Z,53.90
2018-01-13T13:46:10.879Z,54.30
2018-01-13T13:48:38.469Z,54.60
2018-01-13T13:51:06.064Z,55.50
2018-01-13T13:53:34.414Z,55.30
2018-01-13T13:56:02.067Z,55.20
2018-01-13T13:58:29.645Z,55.80
2018-01-13T14:01:21.945Z,56.40
2018-01-13T14:03:24.835Z,57.20
2018-01-13T14:05:52.422Z,56.70
2018-01-13T14:08:19.977Z,57.70
2018-01-13T14:10:47.580Z,57.60
2018-01-13T14:13:15.201Z,57.50
2018-01-13T14:15:42.873Z,57.50
2018-01-13T14:18:10.434Z,57.30
2018-01-13T14:20:38.009Z,57.70
2018-01-13T14:23:05.589Z,57.70
2018-01-13T14:25:33.203Z,58.10
2018-01-13T14:28:00.786Z,58.30
2018-01-13T14:30:28.370Z,58.20
2018-01-13T14:32:56.696Z,58.70
2018-01-13T14:35:24.255Z,58.70
2018-01-13T14:37:52.178Z,58.70
2018-01-13T14:40:19.848Z,58.50
2018-01-13T14:42:48.224Z,58.50
2018-01-13T14:45:16.720Z,58.70
2018-01-13T14:47:45.120Z,58.80
2018-01-13T14:50:12.762Z,59.40
2018-01-13T14:52:40.499Z,58.90
2018-01-13T14:55:08.152Z,59.20
2018-01-13T14:57:35.709Z,59.20
2018-01-13T15:00:03.477Z,59.50
2018-01-13T15:02:31.091Z,60.40
2018-01-13T15:04:58.818Z,60.40
2018-01-13T15:07:36.548Z,60.70
2018-01-13T15:10:04.247Z,61.00
2018-01-13T15:12:31.876Z,61.60
2018-01-13T15:14:59.491Z,61.00
2018-01-13T15:17:27.076Z,61.80
2018-01-13T15:19:54.977Z,61.50
2018-01-13T15:22:22.771Z,61.80
2018-01-13T15:24:50.395Z,61.80
2018-01-13T15:27:17.998Z,62.00
2018-01-13T15:29:45.553Z,62.80
2018-01-13T15:32:14.062Z,62.50
2018-01-13T15:34:41.628Z,62.30
2018-01-13T15:37:09.192Z,62.50
2018-01-13T15:39:36.772Z,62.20
2018-01-13T15:42:05.117Z,61.90
2018-01-13T15:44:32.794Z,61.90
2018-01-13T15:47:00.358Z,61.60
2018-01-13T15:49:27.943Z,61.20
2018-01-13T15:51:55.513Z,61.00
2018-01-13T15:54:23.126Z,61.00
2018-01-13T15:56:50.712Z,61.00
2018-01-13T15:59:18.314Z,60.80
2018-01-13T16:01:46.682Z,61.30
2018-01-13T16:04:14.229Z,61.20
2018-01-13T16:06:41.824Z,61.30
2018-01-13T16:09:10.185Z,61.90
2018-01-13T16:11:37.914Z,61.90
2018-01-13T16:14:05.486Z,62.20
2018-01-13T16:16:33.092Z,62.30
2018-01-13T16:19:01.445Z,62.90
2018-01-13T16:21:29.119Z,62.90
2018-01-13T16:23:57.481Z,64.20
2018-01-13T16:26:25.077Z,63.30
2018-01-13T16:28:53.412Z,62.40
2018-01-13T16:31:20.957Z,62.50
2018-01-13T16:33:48.545Z,62.80
2018-01-13T16:36:16.113Z,62.00
2018-01-13T16:38:44.666Z,62.00
2018-01-13T16:41:12.284Z,62.40
2018-01-13T16:43:39.947Z,62.40
2018-01-13T16:46:08.272Z,62.30
2018-01-13T16:48:35.825Z,62.30
2018-01-13T16:51:03.411Z,61.90
2018-01-13T16:53:30.951Z,61.80
2018-01-13T16:55:58.523Z,61.90
2018-01-13T16:58:26.110Z,61.60
2018-01-13T17:00:53.694Z,61.40
2018-01-13T17:03:21.304Z,61.20
2018-01-13T17:05:48.890Z,60.60
2018-01-13T17:08:16.453Z,61.20
2018-01-13T17:10:44.048Z,61.30
2018-01-13T17:13:11.626Z,61.80
2018-01-13T17:15:39.949Z,61.70
2018-01-13T17:18:07.649Z,61.60
2018-01-13T17:20:35.229Z,60.90
2018-01-13T17:23:03.601Z,61.30
2018-01-13T17:25:31.922Z,61.30
2018-01-13T17:27:59.625Z,61.30
2018-01-13T17:30:27.336Z,61.40
2018-01-13T17:32:54.885Z,61.40
2018-01-13T17:35:23.245Z,61.50
2018-01-13T17:37:51.585Z,61.60
2018-01-13T17:40:19.145Z,61.60
2018-01-13T17:42:46.741Z,61.40
2018-01-13T17:45:14.328Z,61.70
2018-01-13T17:47:42.673Z,61.70
2018-01-13T17:50:10.364Z,61.70
2018-01-13T17:52:37.940Z,61.70
2018-01-13T17:55:06.261Z,61.60
2018-01-13T17:57:34.112Z,61.60
2018-01-13T18:00:01.696Z,61.70
2018-01-13T18:02:29.267Z,61.60
2018-01-13T18:04:56.817Z,61.10
2018-01-13T18:07:24.478Z,61.30
2018-01-13T18:09:52.066Z,60.80
2018-01-13T18:12:19.629Z,60.40
2018-01-13T18:14:47.209Z,60.10
2018-01-13T18:17:15.744Z,60.40
2018-01-13T18:19:43.398Z,61.10
2018-01-13T18:22:11.855Z,60.60
2018-01-13T18:24:39.447Z,60.50
2018-01-13T18:27:07.009Z,60.50
2018-01-13T18:29:34.634Z,60.10
2018-01-13T18:32:03.046Z,60.00
2018-01-13T18:34:30.628Z,60.00
2018-01-13T18:36:58.313Z,60.10
2018-01-13T18:39:25.989Z,60.20
2018-01-13T18:41:53.600Z,60.40
2018-01-13T18:44:21.210Z,60.50
2018-01-13T18:46:48.868Z,59.90
2018-01-13T18:49:16.432Z,60.50
2018-01-13T18:51:44.049Z,59.80
2018-01-13T18:54:11.664Z,59.90
2018-01-13T18:56:39.240Z,60.20
2018-01-13T18:59:07.594Z,60.10
2018-01-13T19:01:35.218Z,59.50
2018-01-13T19:04:02.911Z,59.40
2018-01-13T19:06:30.547Z,59.40
2018-01-13T19:08:58.125Z,59.10
2018-01-13T19:11:26.269Z,59.00
2018-01-13T19:13:53.947Z,59.20
2018-01-13T19:16:21.589Z,59.30
2018-01-13T19:18:49.413Z,59.00
2018-01-13T19:21:17.057Z,59.00
2018-01-13T19:23:44.682Z,59.00
2018-01-13T19:26:12.297Z,59.30
2018-01-13T19:28:39.908Z,59.10
2018-01-13T19:31:08.239Z,58.60
2018-01-13T19:33:35.806Z,58.60
2018-01-13T19:36:03.373Z,58.80
2018-01-13T19:38:31.778Z,59.20
2018-01-13T19:40:59.318Z,58.80
2018-01-13T19:43:26.937Z,58.70
2018-01-13T19:45:54.541Z,59.00
2018-01-13T19:48:22.399Z,58.90
2018-01-13T19:50:50.037Z,59.00
2018-01-13T19:53:17.624Z,59.10
2018-01-13T19:55:45.217Z,58.90
2018-01-13T19:58:13.556Z,59.20
2018-01-13T20:00:41.121Z,59.20
2018-01-13T20:03:08.728Z,59.30
2018-01-13T20:05:36.326Z,59.50
2018-01-13T20:08:03.920Z,59.30
2018-01-13T20:10:31.509Z,58.90
2018-01-13T20:12:59.980Z,59.50
2018-01-13T20:15:27.644Z,59.50
2018-01-13T20:17:55.373Z,59.60
2018-01-13T20:20:22.949Z,59.50
2018-01-13T20:22:50.588Z,59.80
2018-01-13T20:25:18.184Z,59.70
2018-01-13T20:27:45.811Z,59.50
2018-01-13T20:30:13.377Z,59.60
2018-01-13T20:32:41.045Z,60.00
2018-01-13T20:35:08.643Z,59.80
2018-01-13T20:37:36.272Z,60.00
2018-01-13T20:40:04.596Z,60.00
2018-01-13T20:42:32.412Z,60.30
2018-01-13T20:45:00.004Z,60.50
2018-01-13T20:47:27.642Z,60.30
2018-01-13T20:49:55.402Z,60.70
2018-01-13T20:52:22.972Z,60.70
2018-01-13T20:54:50.556Z,60.60
2018-01-13T20:57:18.140Z,61.30
2018-01-13T20:59:45.808Z,60.80
2018-01-13T21:02:13.445Z,60.90
2018-01-13T21:04:41.813Z,61.10
2018-01-13T21:07:09.413Z,61.10
2018-01-13T21:09:37.780Z,61.40
2018-01-13T21:12:05.390Z,61.40
2018-01-13T21:14:32.964Z,61.40
2018-01-13T21:17:01.139Z,61.30
2018-01-13T21:19:30.706Z,61.20
2018-01-13T21:21:59.074Z,61.60
2018-01-13T21:24:26.682Z,61.40
2018-01-13T21:26:54.287Z,61.90
2018-01-13T21:29:21.908Z,61.60
2018-01-13T21:31:49.497Z,61.60
2018-01-13T21:34:17.077Z,61.50
2018-01-13T21:36:44.876Z,61.80
2018-01-13T21:39:13.231Z,61.90
2018-01-13T21:41:40.855Z,61.80
2018-01-13T21:44:08.436Z,61.60
2018-01-13T21:46:36.181Z,61.90
2018-01-13T21:49:03.762Z,61.80
2018-01-13T21:51:31.362Z,61.90
2018-01-13T21:53:59.718Z,62.00
2018-01-13T21:56:27.350Z,62.00
2018-01-13T21:58:54.988Z,62.10
2018-01-13T22:01:23.345Z,61.70
2018-01-13T22:03:50.928Z,61.70
2018-01-13T22:06:20.329Z,61.70
2018-01-13T22:08:47.999Z,61.70
2018-01-13T22:11:15.577Z,62.30
2018-01-13T22:13:43.253Z,61.90
2018-01-13T22:16:10.852Z,62.10
2018-01-13T22:18:38.427Z,62.50
2018-01-13T22:21:05.974Z,62.30
2018-01-13T22:23:33.600Z,62.30
2018-01-13T22:26:01.188Z,62.20
2018-01-13T22:28:28.774Z,62.40
2018-01-13T22:30:57.131Z,62.70
2018-01-13T22:33:24.702Z,62.70
2018-01-13T22:35:52.492Z,62.30
2018-01-13T22:38:20.826Z,62.30
2018-01-13T22:40:48.419Z,62.20
2018-01-13T22:43:15.987Z,62.30
2018-01-13T22:45:44.373Z,62.40
2018-01-13T22:48:12.692Z,62.50
2018-01-13T22:50:40.290Z,62.40
2018-01-13T22:53:08.179Z,62.60
2018-01-13T22:55:35.764Z,62.30
2018-01-13T22:58:04.217Z,63.00
2018-01-13T23:03:25.808Z,62.90
2018-01-13T23:05:53.458Z,62.70
2018-01-13T23:08:21.841Z,62.80
2018-01-13T23:10:49.442Z,62.80
2018-01-13T23:13:17.035Z,62.90
2018-01-13T23:15:44.608Z,63.20
2018-01-13T23:18:12.983Z,63.30
2018-01-13T23:20:40.644Z,63.30
2018-01-13T23:23:09.111Z,63.40
2018-01-13T23:25:36.697Z,63.30
2018-01-13T23:28:05.023Z,62.80
2018-01-13T23:30:32.772Z,63.30
2018-01-13T23:33:00.454Z,64.30
2018-01-13T23:35:28.029Z,63.80
2018-01-13T23:37:55.750Z,64.30
2018-01-13T23:40:23.425Z,64.00
2018-01-13T23:42:51.133Z,64.00
2018-01-13T23:45:19.148Z,64.20
2018-01-13T23:47:46.941Z,64.10
2018-01-13T23:50:14.513Z,64.60
2018-01-13T23:52:42.132Z,64.40
2018-01-13T23:55:10.659Z,64.00
2018-01-13T23:57:38.233Z,63.90
